Time;durP1;ratioP1;P1;durP2;ratioP2;P2;SDS_P1;SDS_P2;PMS_P1;PMS_P2;Temp;Humidity;BMP_temperature;BMP_pressure;BME280_temperature;BME280_humidity;BME280_pressure;Samples;Min_cycle;Max_cycle;Signal;HPM_P1;HPM_P2
2022/05/17 00:01:36;;;;;;;;;;;;;;;;;;5062017;28;1556;-64
2022/05/17 00:04:01;;;;;;;;;;;;;;;;;;5061892;28;1533;-64
2022/05/17 00:06:26;;;;;;;;;;;;;;;;;;5061646;28;1505;-64
2022/05/17 00:08:52;;;;;;;;;;;;;;;;;;5061556;28;1521;-65
2022/05/17 00:11:17;;;;;;;;;;;;;;;;;;5061460;28;1529;-64
2022/05/17 00:13:43;;;;;;;;;;;;;;;;;;5061858;28;1477;-64
2022/05/17 00:16:08;;;;;;;;;;;;;;;;;;5061630;28;1902;-65
2022/05/17 00:18:33;;;;;;;;;;;;;;;;;;5060820;28;1498;-65
2022/05/17 00:20:59;;;;;;;;;;;;;;;;;;5061744;28;1564;-64
2022/05/17 00:23:25;;;;;;;;;;;;;;;;;;5061373;28;1553;-64
2022/05/17 00:25:51;;;;;;;;;;;;;;;;;;5060467;28;1546;-64
2022/05/17 00:28:19;;;;;;;;;;;;;;;;;;5060873;28;1577;-64
2022/05/17 00:30:44;;;;;;;;;;;;;;;;;;5061264;28;1425;-64
2022/05/17 00:33:10;;;;;;;;;;;;;;;;;;5061127;28;1600;-65
2022/05/17 00:35:35;;;;;;;;;;;;;;;;;;5061246;28;1976;-64
2022/05/17 00:38:01;;;;;;;;;;;;;;;;;;5061372;28;1561;-64
2022/05/17 00:40:26;;;;;;;;;;;;;;;;;;5061048;28;1709;-65
2022/05/17 00:42:51;;;;;;;;;;;;;;;;;;5061486;28;1513;-65
2022/05/17 00:45:16;;;;;;;;;;;;;;;;;;5061192;28;1568;-64
2022/05/17 00:47:58;;;;;;;;;;;;;;;;;;5061224;28;1377;-65
2022/05/17 00:50:37;;;;;;;;;;;;;;;;;;5060172;28;1120;-64
2022/05/17 00:53:02;;;;;;;;;;;;;;;;;;5060260;28;1245;-65
2022/05/17 00:55:27;;;;;;;;;;;;;;;;;;5061224;28;1969;-64
2022/05/17 00:57:52;;;;;;;;;;;;;;;;;;5060859;28;1267;-64
2022/05/17 01:00:19;;;;;;;;;;;;;;;;;;5061409;28;965;-64
2022/05/17 01:02:47;;;;;;;;;;;;;;;;;;5060689;28;1184;-65
2022/05/17 01:05:14;;;;;;;;;;;;;;;;;;5061139;28;795;-65
2022/05/17 01:07:41;;;;;;;;;;;;;;;;;;5060184;28;1442;-65
2022/05/17 01:10:07;;;;;;;;;;;;;;;;;;5060257;28;822;-64
2022/05/17 01:12:36;;;;;;;;;;;;;;;;;;5061013;28;1267;-65
2022/05/17 01:15:03;;;;;;;;;;;;;;;;;;5060599;28;1913;-65
2022/05/17 01:17:33;;;;;;;;;;;;;;;;;;5059254;28;1267;-65
2022/05/17 01:19:59;;;;;;;;;;;;;;;;;;5060617;28;1513;-65
2022/05/17 01:22:24;;;;;;;;;;;;;;;;;;5060378;28;1639;-65
2022/05/17 01:24:50;;;;;;;;;;;;;;;;;;5061110;28;1548;-65
2022/05/17 01:27:21;;;;;;;;;;;;;;;;;;5060634;28;1537;-65
2022/05/17 01:29:47;;;;;;;;;;;;;;;;;;5060354;28;1723;-64
2022/05/17 01:32:13;;;;;;;;;;;;;;;;;;5060326;28;1516;-64
2022/05/17 01:34:38;;;;;;;;;;;;;;;;;;5060423;28;1957;-64
2022/05/17 01:37:04;;;;;;;;;;;;;;;;;;5060187;28;1521;-64
2022/05/17 01:39:30;;;;;;;;;;;;;;;;;;5060026;28;1655;-64
2022/05/17 01:41:55;;;;;;;;;;;;;;;;;;5060649;28;1596;-64
2022/05/17 01:44:20;;;;;;;;;;;;;;;;;;5060337;28;1505;-64
2022/05/17 01:46:46;;;;;;;;;;;;;;;;;;5060481;28;1521;-65
2022/05/17 01:49:11;;;;;;;;;;;;;;;;;;5059442;28;1506;-65
2022/05/17 01:51:36;;;;;;;;;;;;;;;;;;5060555;28;1501;-65
2022/05/17 01:54:01;;;;;;;;;;;;;;;;;;5060520;28;1517;-64
2022/05/17 01:56:27;;;;;;;;;;;;;;;;;;5058847;28;1961;-63
2022/05/17 01:58:52;;;;;;;;;;;;;;;;;;5059765;28;1525;-64
2022/05/17 02:01:17;;;;;;;;;;;;;;;;;;5060108;28;1668;-64
2022/05/17 02:03:42;;;;;;;;;;;;;;;;;;5060287;28;1572;-64
2022/05/17 02:06:08;;;;;;;;;;;;;;;;;;5059189;28;1541;-64
2022/05/17 02:08:33;;;;;;;;;;;;;;;;;;5059390;28;1595;-64
2022/05/17 02:10:58;;;;;;;;;;;;;;;;;;5060333;28;1603;-64
2022/05/17 02:13:24;;;;;;;;;;;;;;;;;;5059850;28;1497;-64
2022/05/17 02:15:49;;;;;;;;;;;;;;;;;;5059645;28;1894;-64
2022/05/17 02:18:14;;;;;;;;;;;;;;;;;;5059606;28;1509;-64
2022/05/17 02:20:40;;;;;;;;;;;;;;;;;;5061614;28;1592;-64
2022/05/17 02:23:07;;;;;;;;;;;;;;;;;;5063291;28;1758;-65
2022/05/17 02:25:32;;;;;;;;;;;;;;;;;;5063142;28;1494;-65
2022/05/17 02:27:57;;;;;;;;;;;;;;;;;;5063191;28;1587;-65
2022/05/17 02:30:22;;;;;;;;;;;;;;;;;;5064251;28;1477;-65
2022/05/17 02:32:48;;;;;;;;;;;;;;;;;;5063573;28;1375;-65
2022/05/17 02:35:14;;;;;;;;;;;;;;;;;;5063373;28;1967;-65
2022/05/17 02:37:39;;;;;;;;;;;;;;;;;;5062774;28;1646;-65
2022/05/17 02:40:05;;;;;;;;;;;;;;;;;;5063151;28;1525;-65
2022/05/17 02:42:30;;;;;;;;;;;;;;;;;;5063040;28;1505;-65
2022/05/17 02:44:56;;;;;;;;;;;;;;;;;;5063139;28;1505;-65
2022/05/17 02:47:21;;;;;;;;;;;;;;;;;;5061186;28;1557;-64
2022/05/17 02:49:46;;;;;;;;;;;;;;;;;;5060784;28;1532;-64
2022/05/17 02:52:12;;;;;;;;;;;;;;;;;;5061710;28;1607;-64
2022/05/17 02:54:37;;;;;;;;;;;;;;;;;;5062017;28;1893;-65
2022/05/17 02:57:03;;;;;;;;;;;;;;;;;;5061571;28;1627;-64
2022/05/17 02:59:28;;;;;;;;;;;;;;;;;;5061374;28;1612;-64
2022/05/17 03:01:54;;;;;;;;;;;;;;;;;;5062186;28;1581;-65
2022/05/17 03:04:19;;;;;;;;;;;;;;;;;;5062925;28;1517;-65
2022/05/17 03:06:44;;;;;;;;;;;;;;;;;;5062681;28;1446;-65
2022/05/17 03:09:10;;;;;;;;;;;;;;;;;;5062586;28;1172;-65
2022/05/17 03:11:36;;;;;;;;;;;;;;;;;;5062241;28;1588;-65
2022/05/17 03:14:01;;;;;;;;;;;;;;;;;;5062703;28;1522;-65
2022/05/17 03:16:27;;;;;;;;;;;;;;;;;;5061191;28;1907;-65
2022/05/17 03:18:52;;;;;;;;;;;;;;;;;;5062159;28;1548;-65
2022/05/17 03:21:18;;;;;;;;;;;;;;;;;;5062735;28;1533;-65
2022/05/17 03:23:43;;;;;;;;;;;;;;;;;;5062730;28;865;-64
2022/05/17 03:26:08;;;;;;;;;;;;;;;;;;5062921;28;1485;-64
2022/05/17 03:28:33;;;;;;;;;;;;;;;;;;5061570;28;1730;-65
2022/05/17 03:30:58;;;;;;;;;;;;;;;;;;5062580;28;1450;-65
2022/05/17 03:33:24;;;;;;;;;;;;;;;;;;5061633;28;1430;-64
2022/05/17 03:35:49;;;;;;;;;;;;;;;;;;5062497;28;1897;-64
2022/05/17 03:38:14;;;;;;;;;;;;;;;;;;5062104;28;1580;-65
2022/05/17 03:40:39;;;;;;;;;;;;;;;;;;5061897;28;1560;-64
2022/05/17 03:43:04;;;;;;;;;;;;;;;;;;5062428;28;1596;-65
2022/05/17 03:45:29;;;;;;;;;;;;;;;;;;5062018;28;1620;-64
2022/05/17 03:47:55;;;;;;;;;;;;;;;;;;5061743;28;1463;-64
2022/05/17 03:50:20;;;;;;;;;;;;;;;;;;5062059;28;1572;-66
2022/05/17 03:52:45;;;;;;;;;;;;;;;;;;5062280;28;1623;-65
2022/05/17 03:55:11;;;;;;;;;;;;;;;;;;5062473;28;1958;-65
2022/05/17 03:57:36;;;;;;;;;;;;;;;;;;5061935;28;1572;-65
2022/05/17 04:00:06;;;;;;;;;;;;;;;;;;5062036;28;1596;-65
2022/05/17 04:02:31;;;;;;;;;;;;;;;;;;5061572;28;1628;-65
2022/05/17 04:04:56;;;;;;;;;;;;;;;;;;5062106;28;1490;-65
2022/05/17 04:07:22;;;;;;;;;;;;;;;;;;5061604;28;1537;-65
2022/05/17 04:09:47;;;;;;;;;;;;;;;;;;5061979;28;1307;-65
2022/05/17 04:12:13;;;;;;;;;;;;;;;;;;5061606;28;1569;-65
2022/05/17 04:14:38;;;;;;;;;;;;;;;;;;5060494;28;1898;-66
2022/05/17 04:17:04;;;;;;;;;;;;;;;;;;5061764;28;1560;-65
2022/05/17 04:19:29;;;;;;;;;;;;;;;;;;5063935;28;1748;-65
2022/05/17 04:21:55;;;;;;;;;;;;;;;;;;5072843;28;1509;-65
2022/05/17 04:24:20;;;;;;;;;;;;;;;;;;5061695;28;1556;-65
2022/05/17 04:26:45;;;;;;;;;;;;;;;;;;5060873;28;1640;-64
2022/05/17 04:29:10;;;;;;;;;;;;;;;;;;5061274;28;1353;-64
2022/05/17 04:31:36;;;;;;;;;;;;;;;;;;5060535;28;1235;-63
2022/05/17 04:34:02;;;;;;;;;;;;;;;;;;5061415;28;1309;-64
2022/05/17 04:36:27;;;;;;;;;;;;;;;;;;5060870;28;1898;-64
2022/05/17 04:38:53;;;;;;;;;;;;;;;;;;5060536;28;1401;-63
2022/05/17 04:41:18;;;;;;;;;;;;;;;;;;5059029;28;1242;-64
2022/05/17 04:43:44;;;;;;;;;;;;;;;;;;5059216;28;1278;-64
2022/05/17 04:46:09;;;;;;;;;;;;;;;;;;5063420;28;1395;-64
2022/05/17 04:48:34;;;;;;;;;;;;;;;;;;5064920;28;1264;-63
2022/05/17 04:51:00;;;;;;;;;;;;;;;;;;5062065;28;993;-63
2022/05/17 04:53:25;;;;;;;;;;;;;;;;;;5061096;28;906;-64
2022/05/17 04:55:50;;;;;;;;;;;;;;;;;;5059282;28;1973;-64
2022/05/17 04:58:15;;;;;;;;;;;;;;;;;;5061680;28;1184;-64
2022/05/17 05:00:40;;;;;;;;;;;;;;;;;;5061351;28;1375;-63
2022/05/17 05:03:06;;;;;;;;;;;;;;;;;;5062638;28;1393;-64
2022/05/17 05:05:31;;;;;;;;;;;;;;;;;;5062328;28;861;-64
2022/05/17 05:07:56;;;;;;;;;;;;;;;;;;5062210;28;1263;-64
2022/05/17 05:10:22;;;;;;;;;;;;;;;;;;5060561;28;1521;-64
2022/05/17 05:12:47;;;;;;;;;;;;;;;;;;5060483;28;1513;-65
2022/05/17 05:15:13;;;;;;;;;;;;;;;;;;5061047;28;1963;-67
2022/05/17 05:17:38;;;;;;;;;;;;;;;;;;5060002;28;1565;-67
2022/05/17 05:20:05;;;;;;;;;;;;;;;;;;5060825;28;870;-68
2022/05/17 05:22:31;;;;;;;;;;;;;;;;;;5059788;28;1556;-64
2022/05/17 05:24:56;;;;;;;;;;;;;;;;;;5060675;28;1692;-65
2022/05/17 05:27:22;;;;;;;;;;;;;;;;;;5061048;28;803;-64
2022/05/17 05:29:47;;;;;;;;;;;;;;;;;;5060096;28;1588;-62
2022/05/17 05:32:12;;;;;;;;;;;;;;;;;;5060861;28;1430;-61
2022/05/17 05:34:37;;;;;;;;;;;;;;;;;;5060816;28;941;-61
2022/05/17 05:37:03;;;;;;;;;;;;;;;;;;5060773;28;1894;-61
2022/05/17 05:39:28;;;;;;;;;;;;;;;;;;5060260;28;1418;-62
2022/05/17 05:41:54;;;;;;;;;;;;;;;;;;5060473;28;878;-61
2022/05/17 05:44:19;;;;;;;;;;;;;;;;;;5060662;28;783;-61
2022/05/17 05:46:45;;;;;;;;;;;;;;;;;;5060323;28;1375;-61
2022/05/17 05:49:10;;;;;;;;;;;;;;;;;;5060155;28;1302;-61
2022/05/17 05:51:36;;;;;;;;;;;;;;;;;;5059896;28;858;-61
2022/05/17 05:54:02;;;;;;;;;;;;;;;;;;5060348;28;1450;-62
2022/05/17 05:56:27;;;;;;;;;;;;;;;;;;5043428;28;1964;-61
2022/05/17 05:58:52;;;;;;;;;;;;;;;;;;5043583;28;1189;-61
2022/05/17 06:01:17;;;;;;;;;;;;;;;;;;5044056;28;890;-61
2022/05/17 06:03:43;;;;;;;;;;;;;;;;;;5062141;28;1499;-61
2022/05/17 06:06:08;;;;;;;;;;;;;;;;;;5064278;28;955;-61
2022/05/17 06:08:34;;;;;;;;;;;;;;;;;;5062025;28;1459;-61
2022/05/17 06:11:01;;;;;;;;;;;;;;;;;;5063872;28;759;-61
2022/05/17 06:13:26;;;;;;;;;;;;;;;;;;5063567;28;1394;-61
2022/05/17 06:15:52;;;;;;;;;;;;;;;;;;5063889;28;1971;-61
2022/05/17 06:18:17;;;;;;;;;;;;;;;;;;5063802;28;1204;-61
2022/05/17 06:20:47;;;;;;;;;;;;;;;;;;5063742;28;985;-61
2022/05/17 06:23:12;;;;;;;;;;;;;;;;;;5064035;28;865;-61
2022/05/17 06:25:37;;;;;;;;;;;;;;;;;;5063793;28;876;-61
2022/05/17 06:28:03;;;;;;;;;;;;;;;;;;5063250;28;1462;-61
2022/05/17 06:30:28;;;;;;;;;;;;;;;;;;5063248;28;1505;-61
2022/05/17 06:32:53;;;;;;;;;;;;;;;;;;5063772;28;843;-61
2022/05/17 06:35:19;;;;;;;;;;;;;;;;;;5063514;28;1905;-61
2022/05/17 06:37:44;;;;;;;;;;;;;;;;;;5063358;28;1188;-61
2022/05/17 06:40:10;;;;;;;;;;;;;;;;;;5063378;28;910;-61
2022/05/17 06:42:35;;;;;;;;;;;;;;;;;;5063278;28;798;-61
2022/05/17 06:45:00;;;;;;;;;;;;;;;;;;5062028;28;1461;-61
2022/05/17 06:47:26;;;;;;;;;;;;;;;;;;5063253;28;1036;-61
2022/05/17 06:49:52;;;;;;;;;;;;;;;;;;5063177;28;988;-61
2022/05/17 06:52:17;;;;;;;;;;;;;;;;;;5063236;28;1458;-61
2022/05/17 06:54:43;;;;;;;;;;;;;;;;;;5063086;28;1065;-61
2022/05/17 06:57:10;;;;;;;;;;;;;;;;;;5063264;28;1963;-61
2022/05/17 06:59:36;;;;;;;;;;;;;;;;;;5062600;28;1454;-61
2022/05/17 07:02:01;;;;;;;;;;;;;;;;;;5063126;28;1153;-61
2022/05/17 07:04:27;;;;;;;;;;;;;;;;;;5062997;28;787;-61
2022/05/17 07:06:54;;;;;;;;;;;;;;;;;;5061674;28;1266;-61
2022/05/17 07:09:22;;;;;;;;;;;;;;;;;;5062616;28;1242;-61
2022/05/17 07:14:31;;;;;;;;;;;;;;;;;;5062951;28;1434;-61
2022/05/17 07:16:56;;;;;;;;;;;;;;;;;;5062894;28;1959;-61
2022/05/17 07:19:21;;;;;;;;;;;;;;;;;;5062729;28;1297;-61
2022/05/17 07:21:46;;;;;;;;;;;;;;;;;;5061856;28;1466;-61
2022/05/17 07:24:11;;;;;;;;;;;;;;;;;;5062753;28;1442;-61
2022/05/17 07:26:37;;;;;;;;;;;;;;;;;;5062848;28;913;-61
2022/05/17 07:29:02;;;;;;;;;;;;;;;;;;5062572;28;1419;-61
2022/05/17 07:31:28;;;;;;;;;;;;;;;;;;5061045;28;1435;-61
2022/05/17 07:33:53;;;;;;;;;;;;;;;;;;5062529;28;1473;-61
2022/05/17 07:36:18;;;;;;;;;;;;;;;;;;5062524;28;1893;-62
2022/05/17 07:38:44;;;;;;;;;;;;;;;;;;5062149;28;1275;-62
2022/05/17 07:41:09;;;;;;;;;;;;;;;;;;5062633;28;859;-62
2022/05/17 07:43:34;;;;;;;;;;;;;;;;;;5062156;28;1510;-62
2022/05/17 07:46:01;;;;;;;;;;;;;;;;;;5062507;28;885;-62
2022/05/17 07:48:26;;;;;;;;;;;;;;;;;;5061898;28;1430;-62
2022/05/17 07:50:52;;;;;;;;;;;;;;;;;;5062473;28;830;-62
2022/05/17 07:53:18;;;;;;;;;;;;;;;;;;5062217;28;790;-62
2022/05/17 07:55:44;;;;;;;;;;;;;;;;;;5062306;28;1882;-62
2022/05/17 07:58:10;;;;;;;;;;;;;;;;;;5061968;28;1584;-62
2022/05/17 08:00:35;;;;;;;;;;;;;;;;;;5062351;28;799;-62
2022/05/17 08:03:01;;;;;;;;;;;;;;;;;;5062253;28;791;-62
2022/05/17 08:05:27;;;;;;;;;;;;;;;;;;5062254;28;944;-61
2022/05/17 08:07:53;;;;;;;;;;;;;;;;;;5061851;28;1192;-63
2022/05/17 08:10:18;;;;;;;;;;;;;;;;;;5061962;28;1498;-61
2022/05/17 08:12:43;;;;;;;;;;;;;;;;;;5061782;28;1419;-61
2022/05/17 08:15:09;;;;;;;;;;;;;;;;;;5061922;28;1897;-62
2022/05/17 08:17:35;;;;;;;;;;;;;;;;;;5061107;28;1214;-61
2022/05/17 08:20:00;;;;;;;;;;;;;;;;;;5062279;28;834;-62
2022/05/17 08:22:25;;;;;;;;;;;;;;;;;;5061608;28;976;-62
2022/05/17 08:27:37;;;;;;;;;;;;;;;;;;5061447;28;1676;-59
2022/05/17 08:30:11;;;;;;;;;;;;;;;;;;5061979;28;873;-61
2022/05/17 08:35:27;;;;;;;;;;;;;;;;;;5062034;28;1905;-61
2022/05/17 08:37:52;;;;;;;;;;;;;;;;;;5061185;28;1536;-61
2022/05/17 08:40:19;;;;;;;;;;;;;;;;;;5061749;28;854;-61
2022/05/17 08:42:59;;;;;;;;;;;;;;;;;;5061384;28;1497;-61
2022/05/17 08:45:32;;;;;;;;;;;;;;;;;;5061374;28;1009;-61
2022/05/17 08:47:57;;;;;;;;;;;;;;;;;;5061289;28;1259;-62
2022/05/17 08:50:25;;;;;;;;;;;;;;;;;;5061450;28;906;-61
2022/05/17 08:52:53;;;;;;;;;;;;;;;;;;5061534;28;842;-61
2022/05/17 08:55:22;;;;;;;;;;;;;;;;;;5061362;28;1955;-61
2022/05/17 08:57:49;;;;;;;;;;;;;;;;;;5060896;28;1461;-62
2022/05/17 09:00:17;;;;;;;;;;;;;;;;;;5061396;28;862;-62
2022/05/17 09:02:48;;;;;;;;;;;;;;;;;;5061285;28;1051;-62
2022/05/17 09:05:22;;;;;;;;;;;;;;;;;;5061348;28;1438;-62
2022/05/17 09:07:56;;;;;;;;;;;;;;;;;;5060961;28;1188;-62
2022/05/17 09:10:34;;;;;;;;;;;;;;;;;;5061213;28;1036;-62
2022/05/17 09:13:11;;;;;;;;;;;;;;;;;;5060860;28;986;-62
2022/05/17 09:15:36;;;;;;;;;;;;;;;;;;5060993;28;1959;-62
2022/05/17 09:18:07;;;;;;;;;;;;;;;;;;5060838;28;1305;-62
2022/05/17 09:20:34;;;;;;;;;;;;;;;;;;5060479;28;1438;-62
2022/05/17 09:22:59;;;;;;;;;;;;;;;;;;5060740;28;1388;-62
2022/05/17 09:25:43;;;;;;;;;;;;;;;;;;5060946;28;1473;-60
2022/05/17 09:28:09;;;;;;;;;;;;;;;;;;5060712;28;1295;-60
2022/05/17 09:30:35;;;;;;;;;;;;;;;;;;5059942;28;1059;-61
2022/05/17 09:33:06;;;;;;;;;;;;;;;;;;5067812;28;1458;-61
2022/05/17 09:35:32;;;;;;;;;;;;;;;;;;5080744;28;1898;-61
2022/05/17 09:37:58;;;;;;;;;;;;;;;;;;5080873;28;1244;-61
2022/05/17 09:40:26;;;;;;;;;;;;;;;;;;5080900;28;842;-61
2022/05/17 09:42:57;;;;;;;;;;;;;;;;;;5080873;28;1752;-62
2022/05/17 09:45:36;;;;;;;;;;;;;;;;;;5080809;28;830;-61
2022/05/17 09:48:04;;;;;;;;;;;;;;;;;;5069823;28;1512;-61
2022/05/17 09:53:21;;;;;;;;;;;;;;;;;;5061007;28;680;-61
2022/05/17 09:55:56;;;;;;;;;;;;;;;;;;5060630;28;1919;-62
2022/05/17 09:58:33;;;;;;;;;;;;;;;;;;5058696;28;1244;-62
2022/05/17 10:01:00;;;;;;;;;;;;;;;;;;5060547;28;834;-62
2022/05/17 10:03:32;;;;;;;;;;;;;;;;;;5060510;28;823;-62
2022/05/17 10:05:59;;;;;;;;;;;;;;;;;;5060383;28;1494;-62
2022/05/17 10:08:27;;;;;;;;;;;;;;;;;;5058341;28;1192;-62
2022/05/17 10:11:04;;;;;;;;;;;;;;;;;;5060312;28;1470;-62
2022/05/17 10:13:35;;;;;;;;;;;;;;;;;;5059931;28;1871;-62
2022/05/17 10:16:01;;;;;;;;;;;;;;;;;;5060160;28;1901;-62
2022/05/17 10:18:31;;;;;;;;;;;;;;;;;;5059486;28;1180;-61
2022/05/17 10:20:59;;;;;;;;;;;;;;;;;;5060430;28;882;-61
2022/05/17 10:23:29;;;;;;;;;;;;;;;;;;5059851;28;1482;-61
2022/05/17 10:26:01;;;;;;;;;;;;;;;;;;5060362;28;886;-62
2022/05/17 10:28:33;;;;;;;;;;;;;;;;;;5059524;28;1180;-61
2022/05/17 10:31:11;;;;;;;;;;;;;;;;;;5059995;28;929;-61
2022/05/17 10:33:57;;;;;;;;;;;;;;;;;;5060023;28;892;-61
2022/05/17 10:36:49;;;;;;;;;;;;;;;;;;5059725;28;1902;-62
2022/05/17 10:39:24;;;;;;;;;;;;;;;;;;5057898;28;1458;-62
2022/05/17 10:41:49;;;;;;;;;;;;;;;;;;5062132;28;838;-62
2022/05/17 10:44:16;;;;;;;;;;;;;;;;;;5063505;28;806;-62
2022/05/17 10:46:47;;;;;;;;;;;;;;;;;;5061905;28;886;-61
2022/05/17 10:49:39;;;;;;;;;;;;;;;;;;5062783;28;1199;-61
2022/05/17 10:52:10;;;;;;;;;;;;;;;;;;5063548;28;877;-61
2022/05/17 10:54:50;;;;;;;;;;;;;;;;;;5063232;28;918;-61
2022/05/17 10:57:25;;;;;;;;;;;;;;;;;;5062856;28;1886;-61
2022/05/17 11:00:02;;;;;;;;;;;;;;;;;;5062466;28;1490;-61
2022/05/17 11:02:33;;;;;;;;;;;;;;;;;;5063176;28;873;-61
2022/05/17 11:05:04;;;;;;;;;;;;;;;;;;5061545;28;1430;-61
2022/05/17 11:07:53;;;;;;;;;;;;;;;;;;5062919;28;1192;-61
2022/05/17 11:10:18;;;;;;;;;;;;;;;;;;5063468;28;851;-61
2022/05/17 11:12:47;;;;;;;;;;;;;;;;;;5062986;28;1017;-61
2022/05/17 11:15:18;;;;;;;;;;;;;;;;;;5062259;28;1890;-62
2022/05/17 11:17:54;;;;;;;;;;;;;;;;;;5062239;28;1284;-62
2022/05/17 11:20:26;;;;;;;;;;;;;;;;;;5063251;28;865;-61
2022/05/17 11:22:58;;;;;;;;;;;;;;;;;;5063062;28;794;-62
2022/05/17 11:25:36;;;;;;;;;;;;;;;;;;5062401;28;819;-61
2022/05/17 11:28:16;;;;;;;;;;;;;;;;;;5062158;28;1259;-61
2022/05/17 11:30:52;;;;;;;;;;;;;;;;;;5042597;28;934;-61
2022/05/17 11:33:24;;;;;;;;;;;;;;;;;;5045615;28;1431;-62
2022/05/17 11:35:50;;;;;;;;;;;;;;;;;;5062325;28;1956;-61
2022/05/17 11:38:20;;;;;;;;;;;;;;;;;;5061932;28;1189;-61
2022/05/17 11:40:53;;;;;;;;;;;;;;;;;;5061618;28;767;-62
2022/05/17 11:43:42;;;;;;;;;;;;;;;;;;5062385;28;1477;-61
2022/05/17 11:46:26;;;;;;;;;;;;;;;;;;5062819;28;846;-62
2022/05/17 11:48:56;;;;;;;;;;;;;;;;;;5060316;28;1462;-61
2022/05/17 11:51:22;;;;;;;;;;;;;;;;;;5062948;28;984;-62
2022/05/17 11:53:49;;;;;;;;;;;;;;;;;;5061189;28;1471;-62
2022/05/17 11:56:28;;;;;;;;;;;;;;;;;;5062386;28;1898;-61
2022/05/17 11:58:58;;;;;;;;;;;;;;;;;;5061402;28;1283;-61
2022/05/17 12:01:26;;;;;;;;;;;;;;;;;;5062454;28;898;-61
2022/05/17 12:03:56;;;;;;;;;;;;;;;;;;5062259;28;830;-61
2022/05/17 12:06:36;;;;;;;;;;;;;;;;;;5062013;28;1513;-62
2022/05/17 12:09:04;;;;;;;;;;;;;;;;;;5061566;28;1200;-62
2022/05/17 12:11:39;;;;;;;;;;;;;;;;;;5062023;28;976;-62
2022/05/17 12:14:10;;;;;;;;;;;;;;;;;;5062010;28;1009;-62
2022/05/17 12:16:37;;;;;;;;;;;;;;;;;;5061979;28;1898;-61
2022/05/17 12:19:14;;;;;;;;;;;;;;;;;;5061481;28;1291;-62
2022/05/17 12:21:43;;;;;;;;;;;;;;;;;;5062069;28;807;-62
2022/05/17 12:24:19;;;;;;;;;;;;;;;;;;5061807;28;1458;-62
2022/05/17 12:26:50;;;;;;;;;;;;;;;;;;5061458;28;1427;-62
2022/05/17 12:32:00;;;;;;;;;;;;;;;;;;5062078;28;625;-62
2022/05/17 12:34:25;;;;;;;;;;;;;;;;;;5061842;28;862;-61
2022/05/17 12:36:51;;;;;;;;;;;;;;;;;;5061654;28;1965;-61
2022/05/17 12:44:59;;;;;;;;;;;;;;;;;;5061767;28;1482;-62
2022/05/17 12:47:32;;;;;;;;;;;;;;;;;;5061614;28;870;-62
2022/05/17 12:49:57;;;;;;;;;;;;;;;;;;5061472;28;1087;-62
2022/05/17 12:52:33;;;;;;;;;;;;;;;;;;5061546;28;874;-62
2022/05/17 12:55:01;;;;;;;;;;;;;;;;;;5061384;28;850;-61
2022/05/17 12:57:32;;;;;;;;;;;;;;;;;;5061253;28;1263;-60
2022/05/17 13:00:18;;;;;;;;;;;;;;;;;;5060776;28;1414;-63
2022/05/17 13:02:44;;;;;;;;;;;;;;;;;;5061463;28;949;-61
2022/05/17 13:05:28;;;;;;;;;;;;;;;;;;5060400;28;1422;-61
2022/05/17 13:08:04;;;;;;;;;;;;;;;;;;5060498;28;1220;-61
2022/05/17 13:10:30;;;;;;;;;;;;;;;;;;5060635;28;997;-61
2022/05/17 13:12:55;;;;;;;;;;;;;;;;;;5061223;28;981;-61
2022/05/17 13:15:21;;;;;;;;;;;;;;;;;;5061197;28;1898;-61
2022/05/17 13:17:49;;;;;;;;;;;;;;;;;;5060531;28;1232;-61
2022/05/17 13:20:20;;;;;;;;;;;;;;;;;;5060947;28;1490;-62
2022/05/17 13:22:46;;;;;;;;;;;;;;;;;;5061104;28;905;-62
2022/05/17 13:25:17;;;;;;;;;;;;;;;;;;5061049;28;888;-62
2022/05/17 13:28:00;;;;;;;;;;;;;;;;;;5060251;28;1274;-62
2022/05/17 13:30:28;;;;;;;;;;;;;;;;;;5061099;28;878;-61
2022/05/17 13:32:54;;;;;;;;;;;;;;;;;;5060753;28;858;-61
2022/05/17 13:35:20;;;;;;;;;;;;;;;;;;5060689;28;1889;-61
2022/05/17 13:38:17;;;;;;;;;;;;;;;;;;5060328;28;1196;-61
2022/05/17 13:40:59;;;;;;;;;;;;;;;;;;5055463;28;1247;-62
2022/05/17 13:43:33;;;;;;;;;;;;;;;;;;5060722;28;771;-62
2022/05/17 13:46:11;;;;;;;;;;;;;;;;;;5060926;28;834;-61
2022/05/17 13:48:41;;;;;;;;;;;;;;;;;;5059739;28;1505;-61
2022/05/17 13:51:09;;;;;;;;;;;;;;;;;;5060849;28;779;-61
2022/05/17 13:53:41;;;;;;;;;;;;;;;;;;5060422;28;1012;-61
2022/05/17 13:56:07;;;;;;;;;;;;;;;;;;5060412;28;1897;-61
2022/05/17 13:58:33;;;;;;;;;;;;;;;;;;5059891;28;1263;-61
2022/05/17 14:01:09;;;;;;;;;;;;;;;;;;5059249;28;1084;-61
2022/05/17 14:03:34;;;;;;;;;;;;;;;;;;5060753;28;794;-62
2022/05/17 14:06:08;;;;;;;;;;;;;;;;;;5059907;28;1474;-62
2022/05/17 14:11:50;;;;;;;;;;;;;;;;;;5060815;28;1079;-62
2022/05/17 14:14:16;;;;;;;;;;;;;;;;;;5060436;28;1034;-61
2022/05/17 14:16:47;;;;;;;;;;;;;;;;;;5062142;28;1902;-62
2022/05/17 14:19:17;;;;;;;;;;;;;;;;;;5062954;28;1497;-61
2022/05/17 14:21:47;;;;;;;;;;;;;;;;;;5063809;28;1586;-62
2022/05/17 14:24:15;;;;;;;;;;;;;;;;;;5063686;28;1438;-62
2022/05/17 14:26:44;;;;;;;;;;;;;;;;;;5063777;28;862;-62
2022/05/17 14:29:09;;;;;;;;;;;;;;;;;;5063032;28;1274;-62
2022/05/17 14:31:37;;;;;;;;;;;;;;;;;;5064019;28;1040;-61
2022/05/17 14:34:03;;;;;;;;;;;;;;;;;;5063628;28;866;-61
2022/05/17 14:36:28;;;;;;;;;;;;;;;;;;5063561;28;1893;-61
2022/05/17 14:38:54;;;;;;;;;;;;;;;;;;5062664;28;1451;-61
2022/05/17 14:41:19;;;;;;;;;;;;;;;;;;5063154;28;1502;-61
2022/05/17 14:43:45;;;;;;;;;;;;;;;;;;5063931;28;858;-61
2022/05/17 14:46:12;;;;;;;;;;;;;;;;;;5063570;28;811;-61
2022/05/17 14:48:37;;;;;;;;;;;;;;;;;;5062704;28;1291;-61
2022/05/17 14:51:04;;;;;;;;;;;;;;;;;;5063087;28;1486;-61
2022/05/17 14:53:29;;;;;;;;;;;;;;;;;;5063304;28;993;-61
2022/05/17 14:55:54;;;;;;;;;;;;;;;;;;5063127;28;1894;-61
2022/05/17 14:58:19;;;;;;;;;;;;;;;;;;5062473;28;1188;-61
2022/05/17 15:00:45;;;;;;;;;;;;;;;;;;5063389;28;807;-61
2022/05/17 15:03:21;;;;;;;;;;;;;;;;;;5063509;28;1035;-61
2022/05/17 15:05:48;;;;;;;;;;;;;;;;;;5063413;28;889;-61
2022/05/17 15:08:13;;;;;;;;;;;;;;;;;;5062113;28;1469;-61
2022/05/17 15:10:39;;;;;;;;;;;;;;;;;;5063102;28;1013;-61
2022/05/17 15:13:04;;;;;;;;;;;;;;;;;;5062675;28;1502;-61
2022/05/17 15:15:30;;;;;;;;;;;;;;;;;;5063101;28;1897;-61
2022/05/17 15:17:58;;;;;;;;;;;;;;;;;;5062157;28;1196;-61
2022/05/17 15:20:23;;;;;;;;;;;;;;;;;;5063048;28;1092;-61
2022/05/17 15:22:49;;;;;;;;;;;;;;;;;;5062961;28;802;-61
2022/05/17 15:25:15;;;;;;;;;;;;;;;;;;5062639;28;1619;-61
2022/05/17 15:27:41;;;;;;;;;;;;;;;;;;5060726;28;1286;-61
2022/05/17 15:30:06;;;;;;;;;;;;;;;;;;5062553;28;1520;-62
2022/05/17 15:32:31;;;;;;;;;;;;;;;;;;5062775;28;976;-61
2022/05/17 15:34:57;;;;;;;;;;;;;;;;;;5062733;28;1000;-61
2022/05/17 15:37:22;;;;;;;;;;;;;;;;;;5061292;28;1893;-62
2022/05/17 15:39:48;;;;;;;;;;;;;;;;;;5062062;28;1298;-61
2022/05/17 15:42:14;;;;;;;;;;;;;;;;;;5062497;28;842;-62
2022/05/17 15:44:39;;;;;;;;;;;;;;;;;;5062856;28;798;-62
2022/05/17 15:55:18;;;;;;;;;;;;;;;;;;5062543;28;1898;-62
2022/05/17 15:57:43;;;;;;;;;;;;;;;;;;5061579;28;1180;-62
2022/05/17 16:00:11;;;;;;;;;;;;;;;;;;5060699;28;1562;-62
2022/05/17 16:02:36;;;;;;;;;;;;;;;;;;5061992;28;1450;-61
2022/05/17 16:05:05;;;;;;;;;;;;;;;;;;5062159;28;1407;-61
2022/05/17 16:10:15;;;;;;;;;;;;;;;;;;5062855;28;648;-61
2022/05/17 16:12:42;;;;;;;;;;;;;;;;;;5062068;28;1601;-61
2022/05/17 16:15:08;;;;;;;;;;;;;;;;;;5062073;28;877;-61
2022/05/17 16:17:34;;;;;;;;;;;;;;;;;;5061486;28;1442;-61
2022/05/17 16:20:01;;;;;;;;;;;;;;;;;;5061649;28;997;-62
2022/05/17 16:22:28;;;;;;;;;;;;;;;;;;5062172;28;870;-61
2022/05/17 16:24:53;;;;;;;;;;;;;;;;;;5062476;28;897;-62
2022/05/17 16:27:18;;;;;;;;;;;;;;;;;;5061958;28;997;-61
2022/05/17 16:29:44;;;;;;;;;;;;;;;;;;5061230;28;1188;-61
2022/05/17 16:32:11;;;;;;;;;;;;;;;;;;5061597;28;992;-62
2022/05/17 16:34:36;;;;;;;;;;;;;;;;;;5061471;28;1430;-61
2022/05/17 16:37:02;;;;;;;;;;;;;;;;;;5061687;28;1902;-62
2022/05/17 16:39:28;;;;;;;;;;;;;;;;;;5060616;28;1271;-62
2022/05/17 16:41:56;;;;;;;;;;;;;;;;;;5061219;28;798;-62
2022/05/17 16:44:22;;;;;;;;;;;;;;;;;;5061566;28;854;-62
2022/05/17 16:46:49;;;;;;;;;;;;;;;;;;5061877;28;945;-62
2022/05/17 16:49:14;;;;;;;;;;;;;;;;;;5060480;28;1466;-61
2022/05/17 16:51:40;;;;;;;;;;;;;;;;;;5061621;28;866;-62
2022/05/17 16:54:05;;;;;;;;;;;;;;;;;;5061283;28;1513;-62
2022/05/17 16:56:30;;;;;;;;;;;;;;;;;;5061451;28;1968;-61
2022/05/17 16:58:55;;;;;;;;;;;;;;;;;;5060510;28;1266;-62
2022/05/17 17:01:21;;;;;;;;;;;;;;;;;;5061394;28;1462;-59
2022/05/17 17:03:48;;;;;;;;;;;;;;;;;;5060922;28;1473;-61
2022/05/17 17:06:18;;;;;;;;;;;;;;;;;;5061300;28;998;-62
2022/05/17 17:08:43;;;;;;;;;;;;;;;;;;5060614;28;1256;-62
2022/05/17 17:11:08;;;;;;;;;;;;;;;;;;5061176;28;905;-62
2022/05/17 17:13:33;;;;;;;;;;;;;;;;;;5061043;28;814;-61
2022/05/17 17:16:00;;;;;;;;;;;;;;;;;;5060236;28;1985;-61
2022/05/17 17:18:26;;;;;;;;;;;;;;;;;;5060142;28;1583;-61
2022/05/17 17:20:53;;;;;;;;;;;;;;;;;;5061067;28;1348;-61
2022/05/17 17:23:18;;;;;;;;;;;;;;;;;;5061200;28;823;-61
2022/05/17 17:25:43;;;;;;;;;;;;;;;;;;5061172;28;988;-61
2022/05/17 17:28:08;;;;;;;;;;;;;;;;;;5060093;28;1282;-61
2022/05/17 17:30:34;;;;;;;;;;;;;;;;;;5059766;28;1862;-61
2022/05/17 17:38:28;;;;;;;;;;;;;;;;;;5059939;28;1454;-61
2022/05/17 17:40:53;;;;;;;;;;;;;;;;;;5060997;28;864;-61
2022/05/17 17:43:19;;;;;;;;;;;;;;;;;;5060596;28;1640;-61
2022/05/17 17:45:45;;;;;;;;;;;;;;;;;;5060754;28;878;-61
2022/05/17 17:48:10;;;;;;;;;;;;;;;;;;5058978;28;1184;-61
2022/05/17 17:50:35;;;;;;;;;;;;;;;;;;5059803;28;775;-61